createdAt,value
2019-01-21T00:00:42.782Z,16.00
2019-01-21T00:03:14.685Z,14.30
2019-01-21T00:05:43.685Z,13.80
2019-01-21T00:08:13.059Z,13.68
2019-01-21T00:10:42.442Z,14.93
2019-01-21T00:13:11.816Z,13.98
2019-01-21T00:15:41.239Z,14.95
2019-01-21T00:18:10.692Z,13.20
2019-01-21T00:20:40.061Z,14.53
2019-01-21T00:23:09.482Z,17.07
2019-01-21T00:25:38.856Z,15.40
2019-01-21T00:28:08.415Z,14.58
2019-01-21T00:30:37.798Z,13.43
2019-01-21T00:33:07.222Z,13.17
2019-01-21T00:35:36.580Z,11.93
2019-01-21T00:38:06.210Z,12.50
2019-01-21T00:40:35.572Z,14.20
2019-01-21T00:43:05.071Z,13.67
2019-01-21T00:45:34.463Z,13.50
2019-01-21T00:48:03.814Z,14.07
2019-01-21T00:50:33.176Z,13.05
2019-01-21T00:53:02.546Z,12.50
2019-01-21T00:55:31.925Z,12.30
2019-01-21T00:58:01.288Z,11.90
2019-01-21T01:00:30.887Z,11.27
2019-01-21T01:03:00.416Z,13.43
2019-01-21T01:05:30.091Z,11.30
2019-01-21T01:07:59.848Z,13.10
2019-01-21T01:10:29.223Z,12.28
2019-01-21T01:12:58.605Z,14.10
2019-01-21T01:15:28.003Z,14.37
2019-01-21T01:17:57.362Z,14.10
2019-01-21T01:20:26.792Z,14.13
2019-01-21T01:22:56.197Z,12.35
2019-01-21T01:25:25.573Z,13.40
2019-01-21T01:27:54.946Z,13.30
2019-01-21T01:30:24.601Z,12.63
2019-01-21T01:32:53.964Z,14.13
2019-01-21T01:35:23.358Z,13.93
2019-01-21T01:37:52.740Z,12.95
2019-01-21T01:40:22.387Z,15.23
2019-01-21T01:42:51.747Z,13.03
2019-01-21T01:45:24.890Z,13.98
2019-01-21T01:48:00.441Z,13.53
2019-01-21T01:50:29.895Z,13.05
2019-01-21T01:52:59.630Z,12.90
2019-01-21T02:14:38.233Z,15.25
2019-01-21T02:17:07.600Z,15.87
2019-01-21T02:19:41.658Z,14.83
2019-01-21T02:22:13.284Z,13.97
2019-01-21T02:24:45.297Z,14.20
2019-01-21T02:27:17.957Z,13.58
2019-01-21T02:30:01.233Z,13.48
2019-01-21T02:32:56.276Z,13.55
2019-01-21T02:35:33.679Z,12.87
2019-01-21T02:38:30.355Z,13.78
2019-01-21T02:41:04.341Z,12.75
2019-01-21T02:43:47.410Z,13.10
2019-01-21T02:46:47.007Z,13.27
2019-01-21T02:49:57.760Z,12.30
2019-01-21T02:52:38.110Z,12.23
2019-01-21T02:55:31.862Z,12.18
2019-01-21T02:58:22.988Z,11.88
2019-01-21T03:01:16.336Z,13.48
2019-01-21T03:04:08.400Z,12.90
2019-01-21T03:07:09.580Z,11.97
2019-01-21T03:10:00.904Z,13.50
2019-01-21T03:12:46.471Z,13.27
2019-01-21T03:15:47.907Z,12.90
2019-01-21T03:18:36.802Z,13.13
2019-01-21T03:21:18.882Z,12.87
2019-01-21T03:24:13.954Z,13.65
2019-01-21T03:27:05.686Z,12.35
2019-01-21T03:29:58.953Z,12.93
2019-01-21T03:33:01.976Z,11.43
2019-01-21T03:36:00.024Z,13.10
2019-01-21T03:38:45.609Z,13.33
2019-01-21T03:41:25.982Z,12.70
2019-01-21T03:44:16.023Z,11.05
2019-01-21T03:47:07.747Z,13.22
2019-01-21T03:49:44.513Z,12.50
2019-01-21T03:52:42.568Z,11.93
2019-01-21T03:55:15.636Z,13.37
2019-01-21T03:58:09.568Z,13.08
2019-01-21T04:00:49.494Z,12.77
2019-01-21T04:03:34.919Z,12.90
2019-01-21T04:06:24.189Z,12.97
2019-01-21T04:09:32.352Z,12.63
2019-01-21T04:12:30.278Z,14.50
2019-01-21T04:15:47.181Z,13.18
2019-01-21T04:18:24.562Z,13.68
2019-01-21T04:21:17.863Z,13.53
2019-01-21T04:24:14.609Z,15.28
2019-01-21T04:27:09.128Z,17.20
2019-01-21T04:29:57.728Z,17.20
2019-01-21T04:32:46.610Z,17.87
2019-01-21T04:35:44.481Z,17.45
2019-01-21T04:38:21.005Z,17.02
2019-01-21T04:41:06.715Z,16.45
2019-01-21T04:43:43.399Z,16.05
2019-01-21T04:46:29.407Z,14.63
2019-01-21T04:49:35.841Z,13.65
2019-01-21T04:52:18.287Z,14.43
2019-01-21T04:55:25.872Z,13.88
2019-01-21T04:58:33.225Z,14.63
2019-01-21T05:01:16.269Z,13.97
2019-01-21T05:03:58.868Z,13.93
2019-01-21T05:07:09.233Z,14.55
2019-01-21T05:09:45.958Z,15.00
2019-01-21T05:12:34.394Z,14.95
2019-01-21T05:15:29.297Z,13.70
2019-01-21T05:18:27.095Z,13.48
2019-01-21T05:21:21.591Z,13.87
2019-01-21T05:24:24.499Z,13.32
2019-01-21T05:27:01.244Z,12.70
2019-01-21T05:30:05.317Z,13.53
2019-01-21T05:32:58.542Z,14.25
2019-01-21T05:36:13.697Z,14.13
2019-01-21T05:39:07.694Z,14.83
2019-01-21T05:41:59.907Z,14.43
2019-01-21T05:44:45.860Z,14.07
2019-01-21T05:47:34.739Z,14.37
2019-01-21T05:50:20.924Z,12.98
2019-01-21T05:53:04.308Z,13.95
2019-01-21T05:56:05.172Z,14.43
2019-01-21T05:58:51.483Z,13.20
2019-01-21T06:01:48.900Z,13.97
2019-01-21T06:04:46.895Z,13.87
2019-01-21T06:07:39.045Z,13.05
2019-01-21T06:10:21.997Z,13.60
2019-01-21T06:12:55.966Z,13.48
2019-01-21T06:15:38.134Z,13.78
2019-01-21T06:18:21.455Z,13.48
2019-01-21T06:21:07.449Z,13.70
2019-01-21T06:23:41.415Z,12.73
2019-01-21T06:26:48.577Z,13.15
2019-01-21T06:29:37.332Z,13.30
2019-01-21T06:32:40.267Z,14.18
2019-01-21T06:35:35.115Z,13.63
2019-01-21T06:38:14.289Z,14.83
2019-01-21T06:41:02.990Z,14.15
2019-01-21T06:43:57.648Z,13.85
2019-01-21T06:46:40.409Z,13.33
2019-01-21T06:49:23.030Z,13.53
2019-01-21T06:52:13.850Z,13.08
2019-01-21T06:55:32.442Z,13.72
2019-01-21T06:58:24.520Z,14.20
2019-01-21T07:01:22.163Z,16.30
2019-01-21T07:04:01.758Z,18.30
2019-01-21T07:07:00.142Z,17.27
2019-01-21T07:09:39.741Z,17.05
2019-01-21T07:12:34.525Z,16.10
2019-01-21T07:15:37.440Z,14.43
2019-01-21T07:18:26.165Z,14.63
2019-01-21T07:21:23.982Z,14.77
2019-01-21T07:24:03.500Z,14.80
2019-01-21T07:26:54.051Z,14.35
2019-01-21T07:29:43.239Z,15.38
2019-01-21T07:32:20.040Z,15.10
2019-01-21T07:34:54.049Z,13.80
2019-01-21T07:37:53.791Z,14.53
2019-01-21T07:40:58.637Z,15.23
2019-01-21T07:43:37.904Z,14.28
2019-01-21T07:46:33.123Z,15.23
2019-01-21T07:49:29.900Z,15.75
2019-01-21T07:52:28.173Z,14.17
2019-01-21T07:55:18.584Z,15.27
2019-01-21T07:58:21.495Z,14.50
2019-01-21T08:01:01.295Z,15.40
2019-01-21T08:03:44.019Z,15.53
2019-01-21T08:07:03.405Z,14.63
2019-01-21T08:09:52.552Z,14.78
2019-01-21T08:12:38.545Z,15.23
2019-01-21T08:15:33.954Z,15.25
2019-01-21T08:18:19.835Z,14.10
2019-01-21T08:21:39.663Z,14.10
2019-01-21T08:24:33.321Z,14.55
2019-01-21T08:27:39.376Z,14.60
2019-01-21T08:30:24.645Z,15.83
2019-01-21T08:33:44.425Z,16.17
2019-01-21T08:36:30.123Z,16.33
2019-01-21T08:39:40.488Z,21.57
2019-01-21T08:42:25.674Z,17.30
2019-01-21T08:45:19.215Z,19.00
2019-01-21T08:48:08.124Z,17.80
2019-01-21T08:51:00.266Z,16.30
2019-01-21T08:53:34.251Z,17.32
2019-01-21T08:56:14.115Z,16.20
2019-01-21T08:58:50.812Z,16.37
2019-01-21T09:02:04.197Z,15.07
2019-01-21T09:05:00.313Z,15.32
2019-01-21T09:08:02.452Z,16.73
2019-01-21T09:10:42.487Z,16.40
2019-01-21T09:13:34.638Z,16.93
2019-01-21T09:16:23.712Z,16.53
2019-01-21T09:19:12.700Z,14.87
2019-01-21T09:21:53.017Z,15.60
2019-01-21T09:24:42.345Z,15.47
2019-01-21T09:27:43.651Z,15.28
2019-01-21T09:30:44.495Z,14.83
2019-01-21T09:33:37.588Z,15.75
2019-01-21T09:36:35.182Z,15.20
2019-01-21T09:39:26.532Z,15.55
2019-01-21T09:42:21.703Z,15.10
2019-01-21T09:45:11.946Z,15.27
2019-01-21T09:47:39.702Z,14.60
2019-01-21T09:50:09.077Z,14.80
2019-01-21T09:52:39.360Z,14.68
2019-01-21T09:55:09.288Z,15.67
2019-01-21T09:57:40.067Z,15.35
2019-01-21T10:00:17.633Z,14.28
2019-01-21T10:02:48.969Z,14.65
2019-01-21T10:05:18.453Z,14.83
2019-01-21T10:07:54.221Z,14.25
2019-01-21T10:10:45.757Z,14.63
2019-01-21T10:13:43.733Z,14.85
2019-01-21T10:16:38.528Z,14.20
2019-01-21T10:19:33.619Z,13.85
2019-01-21T10:22:16.718Z,14.10
2019-01-21T10:25:05.311Z,13.87
2019-01-21T10:28:00.423Z,13.30
2019-01-21T10:30:52.547Z,14.18
2019-01-21T10:33:34.685Z,13.53
2019-01-21T10:36:39.382Z,13.63
2019-01-21T10:39:35.818Z,13.67
2019-01-21T10:42:27.443Z,13.50
2019-01-21T10:45:13.307Z,14.17
2019-01-21T10:47:50.159Z,14.10
2019-01-21T10:50:39.230Z,13.13
2019-01-21T10:53:31.482Z,13.47
2019-01-21T10:56:22.131Z,13.87
2019-01-21T10:59:31.161Z,13.77
2019-01-21T11:02:30.834Z,14.97
2019-01-21T11:05:10.748Z,12.70
2019-01-21T11:07:47.134Z,13.73
2019-01-21T11:10:29.680Z,14.13
2019-01-21T11:13:06.180Z,13.77
2019-01-21T11:15:45.561Z,15.73
2019-01-21T11:19:01.979Z,18.57
2019-01-21T11:21:40.353Z,16.63
2019-01-21T11:24:36.467Z,20.10
2019-01-21T11:27:19.775Z,16.00
2019-01-21T11:30:23.923Z,16.27
2019-01-21T11:33:18.719Z,16.43
2019-01-21T11:36:09.168Z,15.53
2019-01-21T11:38:52.046Z,16.17
2019-01-21T11:41:43.719Z,16.33
2019-01-21T11:44:35.270Z,16.03
2019-01-21T11:47:20.567Z,15.10
2019-01-21T11:50:03.548Z,15.10
2019-01-21T11:52:43.318Z,18.33
2019-01-21T11:55:42.837Z,17.90
2019-01-21T11:58:37.367Z,18.00
2019-01-21T12:01:42.257Z,17.73
2019-01-21T12:04:43.989Z,22.00
2019-01-21T12:07:31.037Z,22.07
2019-01-21T12:10:16.711Z,27.70
2019-01-21T12:12:53.186Z,23.43
2019-01-21T12:15:51.396Z,22.50
2019-01-21T12:18:28.280Z,23.97
2019-01-21T12:21:23.060Z,27.93
2019-01-21T12:23:57.036Z,22.33
2019-01-21T12:26:52.540Z,22.43
2019-01-21T12:29:55.190Z,20.90
2019-01-21T12:32:58.229Z,20.10
2019-01-21T12:35:55.895Z,20.53
2019-01-21T12:39:00.181Z,22.05
2019-01-21T12:42:06.032Z,20.80
2019-01-21T12:44:54.972Z,20.43
2019-01-21T12:47:40.036Z,20.80
2019-01-21T12:50:38.001Z,20.57
2019-01-21T12:53:32.632Z,18.70
2019-01-21T12:56:46.022Z,18.87
2019-01-21T12:59:40.643Z,18.03
2019-01-21T13:02:23.104Z,19.03
2019-01-21T13:05:08.923Z,18.47
2019-01-21T13:07:45.304Z,17.90
2019-01-21T13:10:36.093Z,18.83
2019-01-21T13:13:18.514Z,19.67
2019-01-21T13:16:22.021Z,19.93
2019-01-21T13:19:10.732Z,20.57
2019-01-21T13:22:18.034Z,21.50
2019-01-21T13:25:44.945Z,18.80
2019-01-21T13:28:34.823Z,17.70
2019-01-21T13:31:32.837Z,18.17
2019-01-21T13:34:37.028Z,18.33
2019-01-21T13:37:31.906Z,18.87
2019-01-21T13:40:14.964Z,18.20
2019-01-21T13:42:57.617Z,19.33
2019-01-21T13:45:50.096Z,19.30
2019-01-21T13:48:26.517Z,21.40
2019-01-21T13:51:03.444Z,19.97
2019-01-21T13:53:51.527Z,22.43
2019-01-21T13:56:40.397Z,23.97
2019-01-21T13:59:27.068Z,23.07
2019-01-21T14:02:09.878Z,18.77
2019-01-21T14:05:04.313Z,19.13
2019-01-21T14:08:09.864Z,17.40
2019-01-21T14:10:52.363Z,17.50
2019-01-21T14:13:29.034Z,17.37
2019-01-21T14:16:33.087Z,15.70
2019-01-21T14:19:10.341Z,17.90
2019-01-21T14:22:23.764Z,16.67
2019-01-21T14:25:25.060Z,16.53
2019-01-21T14:28:30.945Z,15.63
2019-01-21T14:31:17.738Z,16.60
2019-01-21T14:33:54.496Z,17.53
2019-01-21T14:36:43.866Z,16.90
2019-01-21T14:39:26.583Z,17.23
2019-01-21T14:42:15.592Z,18.80
2019-01-21T14:45:18.038Z,17.30
2019-01-21T14:48:08.685Z,15.33
2019-01-21T14:51:01.014Z,15.87
2019-01-21T14:54:02.611Z,17.30
2019-01-21T14:57:07.440Z,16.23
2019-01-21T15:00:11.090Z,16.10
2019-01-21T15:02:53.477Z,15.63
2019-01-21T15:05:43.622Z,15.13
2019-01-21T15:08:17.607Z,15.93
2019-01-21T15:11:14.081Z,16.10
2019-01-21T15:14:02.613Z,15.83
2019-01-21T15:16:42.026Z,15.70
2019-01-21T15:19:16.045Z,16.20
2019-01-21T15:22:03.745Z,16.43
2019-01-21T15:25:04.850Z,15.13
2019-01-21T15:27:42.410Z,16.97
2019-01-21T15:30:36.214Z,17.33
2019-01-21T15:33:22.231Z,16.73
2019-01-21T15:36:02.324Z,16.77
2019-01-21T15:38:42.245Z,21.43
2019-01-21T15:41:34.010Z,17.27
2019-01-21T15:44:20.332Z,15.53
2019-01-21T15:47:18.465Z,16.43
2019-01-21T15:50:04.287Z,13.30
2019-01-21T15:52:38.291Z,15.23
2019-01-21T15:55:24.431Z,15.00
2019-01-21T15:58:18.735Z,15.57
2019-01-21T16:00:55.277Z,13.03
2019-01-21T16:04:01.135Z,14.73
2019-01-21T16:06:40.745Z,14.20
2019-01-21T16:09:43.379Z,15.20
2019-01-21T16:12:26.034Z,14.00
2019-01-21T16:15:14.793Z,15.03
2019-01-21T16:17:54.985Z,15.40
2019-01-21T16:20:29.309Z,14.57
2019-01-21T16:23:34.607Z,14.93
2019-01-21T16:26:04.687Z,13.83
2019-01-21T16:28:44.435Z,14.23
2019-01-21T18:21:43.700Z,12.18
2019-01-21T18:24:14.363Z,12.70
2019-01-21T18:26:43.749Z,11.90
2019-01-21T18:29:13.152Z,12.43
2019-01-21T18:31:42.527Z,12.43
2019-01-21T18:34:11.963Z,11.95
2019-01-21T18:36:41.447Z,12.50
2019-01-21T18:39:12.289Z,12.05
2019-01-21T18:41:41.663Z,12.67
2019-01-21T18:44:11.122Z,11.70
2019-01-21T18:46:40.489Z,13.07
2019-01-21T18:49:09.928Z,12.83
2019-01-21T18:51:39.336Z,12.70
2019-01-21T18:54:08.695Z,13.43
2019-01-21T18:56:38.327Z,14.07
2019-01-21T18:59:07.732Z,13.45
2019-01-21T19:01:37.105Z,13.38
2019-01-21T19:04:06.609Z,12.95
2019-01-21T19:06:36.011Z,13.07
2019-01-21T19:09:07.974Z,13.17
2019-01-21T19:11:37.360Z,13.45
2019-01-21T19:14:06.916Z,13.73
2019-01-21T19:16:36.286Z,13.57
2019-01-21T19:19:05.717Z,13.70
2019-01-21T19:21:35.098Z,13.60
2019-01-21T19:24:05.114Z,13.55
2019-01-21T19:26:35.549Z,12.63
2019-01-21T19:29:05.150Z,14.00
2019-01-21T19:31:34.512Z,13.17
2019-01-21T19:34:04.407Z,12.47
2019-01-21T19:36:33.805Z,13.00
2019-01-21T19:39:03.237Z,12.43
2019-01-21T19:41:32.617Z,13.27
2019-01-21T19:44:02.007Z,14.35
2019-01-21T19:46:31.379Z,13.57
2019-01-21T19:49:00.743Z,14.35
2019-01-21T19:51:30.150Z,13.83
2019-01-21T19:53:59.508Z,14.10
2019-01-21T19:56:28.871Z,13.27
2019-01-21T19:58:58.288Z,14.05
2019-01-21T20:01:27.640Z,13.47
2019-01-21T20:03:57.005Z,13.50
2019-01-21T20:06:26.406Z,14.13
2019-01-21T20:08:55.760Z,13.43
2019-01-21T20:11:25.203Z,14.20
2019-01-21T20:13:54.588Z,14.13
2019-01-21T20:16:24.413Z,14.57
2019-01-21T20:18:53.839Z,15.43
2019-01-21T20:21:23.259Z,16.97
2019-01-21T20:23:54.253Z,16.03
2019-01-21T20:26:23.620Z,15.73
2019-01-21T20:28:53.633Z,14.57
2019-01-21T20:31:22.996Z,14.73
2019-01-21T20:33:52.432Z,16.12
2019-01-21T20:36:21.861Z,15.13
2019-01-21T20:38:51.224Z,14.90
2019-01-21T20:41:20.585Z,14.80
2019-01-21T20:43:50.363Z,14.93
2019-01-21T20:46:19.732Z,14.93
2019-01-21T20:48:49.088Z,14.40
2019-01-21T20:51:18.456Z,13.87
2019-01-21T20:53:47.838Z,15.58
2019-01-21T20:56:17.286Z,14.37
2019-01-21T20:58:47.451Z,15.53
2019-01-21T21:01:16.805Z,13.50
2019-01-21T21:03:46.180Z,14.43
2019-01-21T21:06:15.947Z,15.53
2019-01-21T21:08:45.314Z,14.63
2019-01-21T21:11:14.672Z,14.30
2019-01-21T21:13:44.046Z,13.68
2019-01-21T21:16:13.415Z,14.43
2019-01-21T21:18:42.841Z,14.40
2019-01-21T21:21:12.287Z,15.60
2019-01-21T21:23:41.642Z,14.90
2019-01-21T21:26:11.030Z,13.40
2019-01-21T21:28:40.415Z,13.90
2019-01-21T21:31:11.236Z,14.50
2019-01-21T21:33:40.587Z,14.73
2019-01-21T21:36:09.965Z,15.27
2019-01-21T21:38:39.328Z,14.97
2019-01-21T21:41:08.682Z,15.70
2019-01-21T21:43:38.069Z,15.03
2019-01-21T21:46:07.450Z,15.40
2019-01-21T21:48:36.827Z,14.70
2019-01-21T21:51:06.253Z,14.47
2019-01-21T21:53:35.692Z,14.78
2019-01-21T21:56:05.138Z,15.93
2019-01-21T21:58:34.512Z,15.75
2019-01-21T22:01:03.951Z,14.73
2019-01-21T22:03:33.317Z,15.35
2019-01-21T22:06:02.778Z,14.53
2019-01-21T22:08:32.133Z,14.33
2019-01-21T22:11:01.498Z,16.17
2019-01-21T22:13:30.890Z,16.23
2019-01-21T22:16:00.247Z,15.37
2019-01-21T22:18:29.883Z,15.23
2019-01-21T22:20:59.258Z,16.60
2019-01-21T22:23:28.640Z,15.53
2019-01-21T22:25:57.987Z,14.60
2019-01-21T22:28:27.375Z,15.25
2019-01-21T22:30:56.737Z,15.67
2019-01-21T22:33:26.478Z,14.87
2019-01-21T22:35:56.212Z,16.03
2019-01-21T22:38:25.560Z,15.10
2019-01-21T22:40:54.929Z,13.37
2019-01-21T22:43:24.375Z,16.90
2019-01-21T22:45:53.749Z,16.50
2019-01-21T22:48:23.130Z,16.27
2019-01-21T22:50:52.540Z,15.57
2019-01-21T22:53:21.903Z,13.58
2019-01-21T22:55:51.289Z,16.20
2019-01-21T22:58:20.765Z,15.18
2019-01-21T23:00:54.926Z,14.93
2019-01-21T23:03:24.430Z,15.55
2019-01-21T23:05:53.880Z,15.17
2019-01-21T23:08:23.603Z,18.05
2019-01-21T23:10:52.965Z,16.07
2019-01-21T23:13:22.747Z,16.55
2019-01-21T23:15:52.118Z,17.30
2019-01-21T23:18:21.495Z,15.98
2019-01-21T23:20:51.151Z,15.70
2019-01-21T23:23:20.519Z,16.40
2019-01-21T23:25:50.188Z,15.23
2019-01-21T23:28:19.560Z,15.28
2019-01-21T23:30:48.918Z,15.43
2019-01-21T23:33:18.292Z,16.05
2019-01-21T23:35:48.940Z,16.70
2019-01-21T23:38:18.341Z,16.20
2019-01-21T23:40:47.699Z,16.53
2019-01-21T23:43:17.141Z,16.73
2019-01-21T23:45:46.516Z,16.63
2019-01-21T23:48:15.872Z,15.45
2019-01-21T23:50:45.243Z,15.37
2019-01-21T23:53:14.598Z,15.45
2019-01-21T23:55:43.947Z,14.47
2019-01-21T23:58:13.345Z,15.98
